sensor_id;sensor_type;location;lat;lon;timestamp;P1;durP1;ratioP1;P2;durP2;ratioP2
75667;SDS011;64266;48.798;44.756;2023-03-31T00:02:41;3.95;;;2.00;;
75667;SDS011;64266;48.798;44.756;2023-03-31T00:07:46;4.65;;;1.92;;
75667;SDS011;64266;48.798;44.756;2023-03-31T00:12:51;5.13;;;1.65;;
75667;SDS011;64266;48.798;44.756;2023-03-31T00:17:54;3.80;;;1.60;;
75667;SDS011;64266;48.798;44.756;2023-03-31T00:23:02;3.92;;;1.70;;
75667;SDS011;64266;48.798;44.756;2023-03-31T00:28:07;3.92;;;1.63;;
75667;SDS011;64266;48.798;44.756;2023-03-31T00:33:10;5.03;;;2.00;;
75667;SDS011;64266;48.798;44.756;2023-03-31T00:38:13;5.03;;;2.10;;
75667;SDS011;64266;48.798;44.756;2023-03-31T00:48:43;4.97;;;2.25;;
75667;SDS011;64266;48.798;44.756;2023-03-31T00:54:00;3.70;;;2.13;;
75667;SDS011;64266;48.798;44.756;2023-03-31T00:59:07;4.43;;;2.28;;
75667;SDS011;64266;48.798;44.756;2023-03-31T01:04:14;3.90;;;2.20;;
75667;SDS011;64266;48.798;44.756;2023-03-31T01:09:24;4.57;;;2.42;;
75667;SDS011;64266;48.798;44.756;2023-03-31T01:14:28;4.95;;;2.22;;
75667;SDS011;64266;48.798;44.756;2023-03-31T01:52:03;5.80;;;2.28;;
75667;SDS011;64266;48.798;44.756;2023-03-31T01:57:16;9.20;;;2.58;;
75667;SDS011;64266;48.798;44.756;2023-03-31T02:02:26;4.43;;;2.05;;
75667;SDS011;64266;48.798;44.756;2023-03-31T02:07:38;4.18;;;1.80;;
75667;SDS011;64266;48.798;44.756;2023-03-31T02:12:45;4.97;;;2.28;;
75667;SDS011;64266;48.798;44.756;2023-03-31T02:17:52;4.15;;;1.90;;
75667;SDS011;64266;48.798;44.756;2023-03-31T02:22:57;4.45;;;2.13;;
75667;SDS011;64266;48.798;44.756;2023-03-31T02:28:07;5.35;;;1.90;;
75667;SDS011;64266;48.798;44.756;2023-03-31T02:33:14;7.93;;;2.30;;
75667;SDS011;64266;48.798;44.756;2023-03-31T02:38:19;5.78;;;2.40;;
75667;SDS011;64266;48.798;44.756;2023-03-31T02:43:22;5.80;;;2.58;;
75667;SDS011;64266;48.798;44.756;2023-03-31T02:48:30;5.13;;;2.33;;
75667;SDS011;64266;48.798;44.756;2023-03-31T02:53:55;5.93;;;2.45;;
75667;SDS011;64266;48.798;44.756;2023-03-31T02:59:33;4.60;;;2.30;;
75667;SDS011;64266;48.798;44.756;2023-03-31T03:04:48;6.88;;;2.65;;
75667;SDS011;64266;48.798;44.756;2023-03-31T03:10:00;7.32;;;2.22;;
75667;SDS011;64266;48.798;44.756;2023-03-31T03:20:33;10.30;;;2.50;;
75667;SDS011;64266;48.798;44.756;2023-03-31T03:25:37;6.32;;;2.70;;
75667;SDS011;64266;48.798;44.756;2023-03-31T03:30:40;5.70;;;2.75;;
75667;SDS011;64266;48.798;44.756;2023-03-31T03:35:43;4.82;;;2.33;;
75667;SDS011;64266;48.798;44.756;2023-03-31T03:40:46;6.68;;;3.20;;
75667;SDS011;64266;48.798;44.756;2023-03-31T03:45:51;5.88;;;2.60;;
75667;SDS011;64266;48.798;44.756;2023-03-31T03:50:53;5.47;;;2.85;;
75667;SDS011;64266;48.798;44.756;2023-03-31T03:55:57;4.88;;;2.53;;
75667;SDS011;64266;48.798;44.756;2023-03-31T04:01:01;12.07;;;3.08;;
75667;SDS011;64266;48.798;44.756;2023-03-31T04:06:03;8.52;;;2.65;;
75667;SDS011;64266;48.798;44.756;2023-03-31T04:11:11;6.18;;;2.40;;
75667;SDS011;64266;48.798;44.756;2023-03-31T04:16:20;4.80;;;2.13;;
75667;SDS011;64266;48.798;44.756;2023-03-31T04:21:24;7.15;;;2.50;;
75667;SDS011;64266;48.798;44.756;2023-03-31T04:26:27;5.43;;;2.50;;
75667;SDS011;64266;48.798;44.756;2023-03-31T04:31:46;5.03;;;1.98;;
75667;SDS011;64266;48.798;44.756;2023-03-31T04:36:49;11.07;;;2.30;;
75667;SDS011;64266;48.798;44.756;2023-03-31T04:41:52;12.85;;;2.60;;
75667;SDS011;64266;48.798;44.756;2023-03-31T04:46:56;7.82;;;2.90;;
75667;SDS011;64266;48.798;44.756;2023-03-31T04:52:00;4.32;;;1.85;;
75667;SDS011;64266;48.798;44.756;2023-03-31T04:57:04;7.97;;;2.70;;
75667;SDS011;64266;48.798;44.756;2023-03-31T05:02:07;8.63;;;2.60;;
75667;SDS011;64266;48.798;44.756;2023-03-31T05:07:10;5.18;;;2.38;;
75667;SDS011;64266;48.798;44.756;2023-03-31T05:12:12;7.25;;;2.65;;
75667;SDS011;64266;48.798;44.756;2023-03-31T05:17:16;10.75;;;2.70;;
75667;SDS011;64266;48.798;44.756;2023-03-31T05:22:19;6.22;;;2.40;;
75667;SDS011;64266;48.798;44.756;2023-03-31T05:27:23;12.07;;;2.60;;
75667;SDS011;64266;48.798;44.756;2023-03-31T05:32:26;3.67;;;2.00;;
75667;SDS011;64266;48.798;44.756;2023-03-31T05:37:31;9.43;;;2.03;;
75667;SDS011;64266;48.798;44.756;2023-03-31T05:42:36;8.80;;;1.95;;
75667;SDS011;64266;48.798;44.756;2023-03-31T05:54:10;7.72;;;2.60;;
75667;SDS011;64266;48.798;44.756;2023-03-31T06:05:14;8.43;;;2.33;;
75667;SDS011;64266;48.798;44.756;2023-03-31T06:10:18;8.00;;;3.53;;
75667;SDS011;64266;48.798;44.756;2023-03-31T06:15:24;4.85;;;1.83;;
75667;SDS011;64266;48.798;44.756;2023-03-31T06:20:33;5.00;;;2.10;;
75667;SDS011;64266;48.798;44.756;2023-03-31T06:25:37;6.25;;;2.20;;
75667;SDS011;64266;48.798;44.756;2023-03-31T06:30:59;4.40;;;1.90;;
75667;SDS011;64266;48.798;44.756;2023-03-31T06:36:15;4.55;;;1.90;;
75667;SDS011;64266;48.798;44.756;2023-03-31T06:47:01;9.48;;;2.67;;
75667;SDS011;64266;48.798;44.756;2023-03-31T06:52:04;6.28;;;2.10;;
75667;SDS011;64266;48.798;44.756;2023-03-31T06:57:07;10.82;;;1.90;;
75667;SDS011;64266;48.798;44.756;2023-03-31T07:02:12;9.32;;;2.22;;
75667;SDS011;64266;48.798;44.756;2023-03-31T07:07:16;6.55;;;2.33;;
75667;SDS011;64266;48.798;44.756;2023-03-31T07:12:20;7.35;;;2.05;;
75667;SDS011;64266;48.798;44.756;2023-03-31T07:17:23;6.38;;;2.50;;
75667;SDS011;64266;48.798;44.756;2023-03-31T07:22:27;5.55;;;1.98;;
75667;SDS011;64266;48.798;44.756;2023-03-31T07:27:31;9.55;;;2.13;;
75667;SDS011;64266;48.798;44.756;2023-03-31T07:32:41;3.03;;;1.70;;
75667;SDS011;64266;48.798;44.756;2023-03-31T07:38:00;8.80;;;3.25;;
75667;SDS011;64266;48.798;44.756;2023-03-31T07:43:06;6.60;;;1.83;;
75667;SDS011;64266;48.798;44.756;2023-03-31T07:48:13;9.38;;;1.95;;
75667;SDS011;64266;48.798;44.756;2023-03-31T07:53:16;12.45;;;2.22;;
75667;SDS011;64266;48.798;44.756;2023-03-31T07:58:20;7.68;;;2.10;;
75667;SDS011;64266;48.798;44.756;2023-03-31T08:03:22;4.93;;;1.65;;
75667;SDS011;64266;48.798;44.756;2023-03-31T08:08:26;5.80;;;1.80;;
75667;SDS011;64266;48.798;44.756;2023-03-31T08:13:29;4.47;;;2.00;;
75667;SDS011;64266;48.798;44.756;2023-03-31T08:18:32;3.90;;;1.98;;
75667;SDS011;64266;48.798;44.756;2023-03-31T08:23:37;4.00;;;1.50;;
75667;SDS011;64266;48.798;44.756;2023-03-31T08:28:40;7.65;;;2.40;;
75667;SDS011;64266;48.798;44.756;2023-03-31T08:33:45;5.53;;;1.80;;
75667;SDS011;64266;48.798;44.756;2023-03-31T08:38:56;4.95;;;1.70;;
75667;SDS011;64266;48.798;44.756;2023-03-31T08:44:01;3.45;;;1.42;;
75667;SDS011;64266;48.798;44.756;2023-03-31T08:49:12;5.90;;;2.05;;
75667;SDS011;64266;48.798;44.756;2023-03-31T08:54:19;3.58;;;1.65;;
75667;SDS011;64266;48.798;44.756;2023-03-31T08:59:28;8.32;;;2.25;;
75667;SDS011;64266;48.798;44.756;2023-03-31T09:04:41;5.65;;;3.05;;
75667;SDS011;64266;48.798;44.756;2023-03-31T09:10:18;6.38;;;1.88;;
75667;SDS011;64266;48.798;44.756;2023-03-31T09:15:28;5.07;;;1.95;;
75667;SDS011;64266;48.798;44.756;2023-03-31T09:20:40;4.63;;;2.10;;
75667;SDS011;64266;48.798;44.756;2023-03-31T09:25:52;5.72;;;2.03;;
75667;SDS011;64266;48.798;44.756;2023-03-31T09:42:58;4.55;;;1.88;;
75667;SDS011;64266;48.798;44.756;2023-03-31T09:48:06;5.90;;;2.20;;
75667;SDS011;64266;48.798;44.756;2023-03-31T09:53:31;7.30;;;1.92;;
75667;SDS011;64266;48.798;44.756;2023-03-31T09:58:45;5.07;;;2.13;;
75667;SDS011;64266;48.798;44.756;2023-03-31T10:03:49;5.03;;;2.30;;
75667;SDS011;64266;48.798;44.756;2023-03-31T10:09:00;5.25;;;1.90;;
75667;SDS011;64266;48.798;44.756;2023-03-31T10:14:09;7.65;;;1.88;;
75667;SDS011;64266;48.798;44.756;2023-03-31T10:19:20;4.20;;;1.67;;
75667;SDS011;64266;48.798;44.756;2023-03-31T10:24:25;7.85;;;1.95;;
75667;SDS011;64266;48.798;44.756;2023-03-31T10:29:39;8.07;;;2.55;;
75667;SDS011;64266;48.798;44.756;2023-03-31T10:34:43;5.63;;;2.25;;
75667;SDS011;64266;48.798;44.756;2023-03-31T10:39:46;4.10;;;1.67;;
75667;SDS011;64266;48.798;44.756;2023-03-31T10:44:57;6.53;;;2.15;;
75667;SDS011;64266;48.798;44.756;2023-03-31T11:50:44;5.68;;;1.67;;
75667;SDS011;64266;48.798;44.756;2023-03-31T11:55:51;4.75;;;1.80;;
75667;SDS011;64266;48.798;44.756;2023-03-31T12:06:20;9.38;;;1.70;;
75667;SDS011;64266;48.798;44.756;2023-03-31T12:16:57;12.43;;;2.25;;
75667;SDS011;64266;48.798;44.756;2023-03-31T12:27:25;8.77;;;3.50;;
75667;SDS011;64266;48.798;44.756;2023-03-31T12:33:06;9.45;;;3.35;;
75667;SDS011;64266;48.798;44.756;2023-03-31T13:02:25;8.70;;;3.13;;
75667;SDS011;64266;48.798;44.756;2023-03-31T13:12:31;10.57;;;3.00;;
75667;SDS011;64266;48.798;44.756;2023-03-31T13:17:37;9.15;;;2.35;;
75667;SDS011;64266;48.798;44.756;2023-03-31T13:22:44;5.32;;;2.40;;
75667;SDS011;64266;48.798;44.756;2023-03-31T13:27:51;6.63;;;2.50;;
75667;SDS011;64266;48.798;44.756;2023-03-31T13:48:49;6.78;;;2.40;;
75667;SDS011;64266;48.798;44.756;2023-03-31T14:10:34;8.05;;;2.95;;
75667;SDS011;64266;48.798;44.756;2023-03-31T14:15:57;5.20;;;2.47;;
75667;SDS011;64266;48.798;44.756;2023-03-31T14:31:33;7.30;;;3.10;;
75667;SDS011;64266;48.798;44.756;2023-03-31T14:41:53;9.18;;;2.88;;
75667;SDS011;64266;48.798;44.756;2023-03-31T14:46:58;8.52;;;3.13;;
75667;SDS011;64266;48.798;44.756;2023-03-31T14:52:03;9.40;;;2.97;;
75667;SDS011;64266;48.798;44.756;2023-03-31T14:57:24;7.72;;;3.20;;
75667;SDS011;64266;48.798;44.756;2023-03-31T15:02:35;8.43;;;3.25;;
75667;SDS011;64266;48.798;44.756;2023-03-31T15:07:40;10.43;;;3.97;;
75667;SDS011;64266;48.798;44.756;2023-03-31T15:12:42;5.97;;;2.80;;
75667;SDS011;64266;48.798;44.756;2023-03-31T15:17:45;10.70;;;3.00;;
75667;SDS011;64266;48.798;44.756;2023-03-31T15:22:48;9.27;;;3.10;;
75667;SDS011;64266;48.798;44.756;2023-03-31T15:27:55;12.98;;;3.25;;
75667;SDS011;64266;48.798;44.756;2023-03-31T15:33:04;7.75;;;3.10;;
75667;SDS011;64266;48.798;44.756;2023-03-31T15:38:19;8.88;;;3.22;;
75667;SDS011;64266;48.798;44.756;2023-03-31T15:43:46;8.30;;;3.08;;
75667;SDS011;64266;48.798;44.756;2023-03-31T15:48:53;5.15;;;2.70;;
75667;SDS011;64266;48.798;44.756;2023-03-31T15:53:58;7.82;;;2.80;;
75667;SDS011;64266;48.798;44.756;2023-03-31T15:59:01;7.38;;;2.90;;
75667;SDS011;64266;48.798;44.756;2023-03-31T16:04:08;12.15;;;2.90;;
75667;SDS011;64266;48.798;44.756;2023-03-31T16:14:26;8.52;;;3.55;;
75667;SDS011;64266;48.798;44.756;2023-03-31T16:19:41;14.07;;;3.22;;
75667;SDS011;64266;48.798;44.756;2023-03-31T16:24:47;6.70;;;2.97;;
75667;SDS011;64266;48.798;44.756;2023-03-31T16:29:50;8.43;;;3.38;;
75667;SDS011;64266;48.798;44.756;2023-03-31T16:35:09;7.60;;;3.35;;
75667;SDS011;64266;48.798;44.756;2023-03-31T16:40:12;9.40;;;3.13;;
75667;SDS011;64266;48.798;44.756;2023-03-31T16:45:14;9.50;;;3.20;;
75667;SDS011;64266;48.798;44.756;2023-03-31T16:50:17;10.93;;;3.30;;
75667;SDS011;64266;48.798;44.756;2023-03-31T16:55:20;9.57;;;2.80;;
75667;SDS011;64266;48.798;44.756;2023-03-31T17:00:22;11.30;;;3.20;;
75667;SDS011;64266;48.798;44.756;2023-03-31T17:05:25;10.85;;;3.50;;
75667;SDS011;64266;48.798;44.756;2023-03-31T17:10:27;10.38;;;3.20;;
75667;SDS011;64266;48.798;44.756;2023-03-31T17:15:30;9.23;;;3.28;;
75667;SDS011;64266;48.798;44.756;2023-03-31T17:20:32;8.27;;;3.15;;
75667;SDS011;64266;48.798;44.756;2023-03-31T17:25:36;6.53;;;3.20;;
75667;SDS011;64266;48.798;44.756;2023-03-31T17:30:39;7.88;;;3.10;;
75667;SDS011;64266;48.798;44.756;2023-03-31T17:35:45;12.65;;;2.90;;
75667;SDS011;64266;48.798;44.756;2023-03-31T17:40:47;7.50;;;3.25;;
75667;SDS011;64266;48.798;44.756;2023-03-31T17:45:49;15.32;;;3.60;;
75667;SDS011;64266;48.798;44.756;2023-03-31T17:50:52;11.18;;;3.15;;
75667;SDS011;64266;48.798;44.756;2023-03-31T17:55:55;8.40;;;3.30;;
75667;SDS011;64266;48.798;44.756;2023-03-31T18:00:58;10.15;;;4.07;;
75667;SDS011;64266;48.798;44.756;2023-03-31T18:06:02;13.40;;;5.22;;
75667;SDS011;64266;48.798;44.756;2023-03-31T18:11:09;13.27;;;5.18;;
75667;SDS011;64266;48.798;44.756;2023-03-31T18:16:12;9.50;;;4.32;;
75667;SDS011;64266;48.798;44.756;2023-03-31T18:21:14;12.85;;;5.50;;
75667;SDS011;64266;48.798;44.756;2023-03-31T18:26:17;9.63;;;4.25;;
75667;SDS011;64266;48.798;44.756;2023-03-31T18:31:20;7.75;;;3.45;;
75667;SDS011;64266;48.798;44.756;2023-03-31T18:36:24;10.73;;;3.42;;
75667;SDS011;64266;48.798;44.756;2023-03-31T18:41:29;6.75;;;2.80;;
75667;SDS011;64266;48.798;44.756;2023-03-31T18:46:31;12.15;;;3.45;;
75667;SDS011;64266;48.798;44.756;2023-03-31T18:51:34;6.63;;;2.70;;
75667;SDS011;64266;48.798;44.756;2023-03-31T18:56:36;8.23;;;3.05;;
75667;SDS011;64266;48.798;44.756;2023-03-31T19:01:39;6.35;;;2.90;;
75667;SDS011;64266;48.798;44.756;2023-03-31T19:06:41;7.38;;;3.08;;
75667;SDS011;64266;48.798;44.756;2023-03-31T19:11:44;6.75;;;3.28;;
75667;SDS011;64266;48.798;44.756;2023-03-31T19:16:46;6.50;;;3.25;;
75667;SDS011;64266;48.798;44.756;2023-03-31T19:21:49;5.95;;;2.80;;
75667;SDS011;64266;48.798;44.756;2023-03-31T19:26:54;8.95;;;3.17;;
75667;SDS011;64266;48.798;44.756;2023-03-31T19:31:58;6.35;;;2.63;;
75667;SDS011;64266;48.798;44.756;2023-03-31T19:37:01;7.25;;;2.53;;
75667;SDS011;64266;48.798;44.756;2023-03-31T19:42:04;7.40;;;2.50;;
75667;SDS011;64266;48.798;44.756;2023-03-31T19:47:07;6.07;;;2.80;;
75667;SDS011;64266;48.798;44.756;2023-03-31T19:52:09;5.25;;;2.88;;
75667;SDS011;64266;48.798;44.756;2023-03-31T19:57:11;7.53;;;2.30;;
75667;SDS011;64266;48.798;44.756;2023-03-31T20:02:14;6.30;;;2.90;;
75667;SDS011;64266;48.798;44.756;2023-03-31T20:07:17;9.00;;;2.80;;
75667;SDS011;64266;48.798;44.756;2023-03-31T20:12:21;7.95;;;2.60;;
75667;SDS011;64266;48.798;44.756;2023-03-31T20:17:24;8.90;;;2.83;;
75667;SDS011;64266;48.798;44.756;2023-03-31T20:22:27;9.05;;;3.58;;
75667;SDS011;64266;48.798;44.756;2023-03-31T20:27:31;8.13;;;3.38;;
75667;SDS011;64266;48.798;44.756;2023-03-31T20:32:34;8.32;;;3.58;;
75667;SDS011;64266;48.798;44.756;2023-03-31T20:37:36;9.13;;;3.85;;
75667;SDS011;64266;48.798;44.756;2023-03-31T20:42:39;8.05;;;3.90;;
75667;SDS011;64266;48.798;44.756;2023-03-31T20:47:42;13.52;;;3.97;;
75667;SDS011;64266;48.798;44.756;2023-03-31T20:52:45;8.32;;;5.07;;
75667;SDS011;64266;48.798;44.756;2023-03-31T20:57:49;9.60;;;3.85;;
75667;SDS011;64266;48.798;44.756;2023-03-31T21:02:51;10.73;;;3.90;;
75667;SDS011;64266;48.798;44.756;2023-03-31T21:07:55;10.80;;;3.83;;
75667;SDS011;64266;48.798;44.756;2023-03-31T21:12:57;10.70;;;5.72;;
75667;SDS011;64266;48.798;44.756;2023-03-31T21:18:01;9.60;;;3.20;;
75667;SDS011;64266;48.798;44.756;2023-03-31T21:23:04;9.55;;;3.88;;
75667;SDS011;64266;48.798;44.756;2023-03-31T21:28:07;6.65;;;2.90;;
75667;SDS011;64266;48.798;44.756;2023-03-31T21:33:10;6.95;;;3.35;;
75667;SDS011;64266;48.798;44.756;2023-03-31T21:38:14;10.60;;;3.28;;
75667;SDS011;64266;48.798;44.756;2023-03-31T21:43:18;9.30;;;3.92;;
75667;SDS011;64266;48.798;44.756;2023-03-31T21:48:21;7.82;;;3.47;;
75667;SDS011;64266;48.798;44.756;2023-03-31T21:53:26;7.10;;;3.20;;
75667;SDS011;64266;48.798;44.756;2023-03-31T21:58:31;5.72;;;2.95;;
75667;SDS011;64266;48.798;44.756;2023-03-31T22:03:34;8.00;;;3.40;;
75667;SDS011;64266;48.798;44.756;2023-03-31T22:08:39;7.95;;;3.17;;
75667;SDS011;64266;48.798;44.756;2023-03-31T22:13:42;7.22;;;3.10;;
75667;SDS011;64266;48.798;44.756;2023-03-31T22:18:46;8.02;;;3.53;;
75667;SDS011;64266;48.798;44.756;2023-03-31T22:23:52;5.65;;;2.92;;
75667;SDS011;64266;48.798;44.756;2023-03-31T22:28:57;10.77;;;3.25;;
75667;SDS011;64266;48.798;44.756;2023-03-31T22:34:00;9.20;;;3.00;;
75667;SDS011;64266;48.798;44.756;2023-03-31T22:39:04;6.63;;;3.08;;
75667;SDS011;64266;48.798;44.756;2023-03-31T22:44:06;6.82;;;3.13;;
75667;SDS011;64266;48.798;44.756;2023-03-31T22:49:10;7.43;;;3.35;;
75667;SDS011;64266;48.798;44.756;2023-03-31T22:54:14;8.15;;;3.03;;
75667;SDS011;64266;48.798;44.756;2023-03-31T22:59:19;9.82;;;3.03;;
75667;SDS011;64266;48.798;44.756;2023-03-31T23:04:22;8.68;;;3.38;;
75667;SDS011;64266;48.798;44.756;2023-03-31T23:09:24;9.23;;;3.38;;
75667;SDS011;64266;48.798;44.756;2023-03-31T23:14:28;7.43;;;3.17;;
75667;SDS011;64266;48.798;44.756;2023-03-31T23:19:30;7.38;;;3.63;;
75667;SDS011;64266;48.798;44.756;2023-03-31T23:24:33;6.38;;;2.92;;
75667;SDS011;64266;48.798;44.756;2023-03-31T23:29:35;9.10;;;3.30;;
75667;SDS011;64266;48.798;44.756;2023-03-31T23:34:38;8.50;;;3.58;;
75667;SDS011;64266;48.798;44.756;2023-03-31T23:39:42;9.48;;;3.80;;
75667;SDS011;64266;48.798;44.756;2023-03-31T23:44:46;8.55;;;3.67;;
75667;SDS011;64266;48.798;44.756;2023-03-31T23:49:49;9.50;;;3.97;;
75667;SDS011;64266;48.798;44.756;2023-03-31T23:54:52;8.77;;;4.28;;
75667;SDS011;64266;48.798;44.756;2023-03-31T23:59:54;11.38;;;4.97;;
